Time,TemperatureF,DewpointF,PressureIn,WindDirection,WindDirectionDegrees,WindSpeedMPH,WindSpeedGustMPH,Humidity,HourlyPrecipIn,Conditions,Clouds,dailyrainin,SoftwareType,DateUTC
2013-07-13 00:07:00,78.5,55.0,29.66,ESE,117,0.0,2.0,44,0.00,,,0.00,weatherlink.com 1.10,2013-07-13 06:07:00,
2013-07-13 00:22:00,78.8,55.0,29.66,SE,132,0.0,2.0,44,0.00,,,0.00,weatherlink.com 1.10,2013-07-13 06:22:00,
2013-07-13 00:37:00,77.9,55.0,29.66,SE,132,0.0,0.0,45,0.00,,,0.00,weatherlink.com 1.10,2013-07-13 06:37:00,
2013-07-13 00:52:00,78.6,55.0,29.67,ESE,103,6.0,8.0,44,0.00,,,0.00,weatherlink.com 1.10,2013-07-13 06:52:00,
2013-07-13 01:07:00,72.5,60.0,29.67,East,101,2.0,12.0,66,0.04,,,0.04,weatherlink.com 1.10,2013-07-13 07:07:00,
2013-07-13 01:22:00,69.9,58.0,29.66,ESE,103,3.0,8.0,66,0.09,,,0.09,weatherlink.com 1.10,2013-07-13 07:22:00,
2013-07-13 01:37:00,68.6,56.0,29.67,SE,126,4.0,12.0,65,0.19,,,0.19,weatherlink.com 1.10,2013-07-13 07:37:00,
2013-07-13 01:52:00,67.7,58.0,29.65,NE,56,1.0,4.0,71,0.22,,,0.22,weatherlink.com 1.10,2013-07-13 07:52:00,
2013-07-13 02:07:00,66.7,60.0,29.65,SSW,193,2.0,4.0,80,0.18,,,0.22,weatherlink.com 1.10,2013-07-13 08:07:00,
2013-07-13 02:22:00,68.0,61.0,29.66,ESE,117,0.0,2.0,79,0.13,,,0.22,weatherlink.com 1.10,2013-07-13 08:22:00,
2013-07-13 02:37:00,68.3,62.0,29.66,ESE,117,0.0,0.0,81,0.03,,,0.22,weatherlink.com 1.10,2013-07-13 08:37:00,
2013-07-13 02:52:00,67.9,60.0,29.65,ESE,117,0.0,0.0,77,0.00,,,0.22,weatherlink.com 1.10,2013-07-13 08:52:00,
2013-07-13 03:07:00,68.8,61.0,29.65,ESE,117,0.0,0.0,76,0.00,,,0.22,weatherlink.com 1.10,2013-07-13 09:07:00,
2013-07-13 03:22:00,68.5,62.0,29.64,ESE,117,0.0,0.0,79,0.00,,,0.22,weatherlink.com 1.10,2013-07-13 09:22:00,
2013-07-13 03:37:00,68.4,62.0,29.65,ESE,117,0.0,0.0,80,0.00,,,0.22,weatherlink.com 1.10,2013-07-13 09:37:00,
2013-07-13 03:53:00,69.0,60.0,29.66,ESE,117,0.0,0.0,73,0.00,,,0.22,weatherlink.com 1.10,2013-07-13 09:53:00,
2013-07-13 04:08:00,68.1,61.0,29.66,ESE,117,0.0,0.0,79,0.00,,,0.22,weatherlink.com 1.10,2013-07-13 10:08:00,
2013-07-13 04:23:00,67.7,61.0,29.66,ESE,117,0.0,0.0,80,0.00,,,0.22,weatherlink.com 1.10,2013-07-13 10:23:00,
2013-07-13 04:38:00,66.8,60.0,29.67,SE,130,0.0,3.0,79,0.00,,,0.22,weatherlink.com 1.10,2013-07-13 10:38:00,
2013-07-13 04:53:00,67.3,60.0,29.67,SSW,193,0.0,3.0,77,0.00,,,0.22,weatherlink.com 1.10,2013-07-13 10:53:00,
2013-07-13 05:08:00,67.7,61.0,29.67,East,90,0.0,0.0,79,0.00,,,0.22,weatherlink.com 1.10,2013-07-13 11:08:00,
2013-07-13 05:23:00,69.0,62.0,29.68,SE,133,0.0,1.0,78,0.00,,,0.22,weatherlink.com 1.10,2013-07-13 11:23:00,
2013-07-13 05:38:00,68.9,61.0,29.68,ESE,110,2.0,3.0,77,0.00,,,0.22,weatherlink.com 1.10,2013-07-13 11:38:00,
2013-07-13 05:53:00,69.1,61.0,29.68,SE,129,0.0,5.0,75,0.00,,,0.22,weatherlink.com 1.10,2013-07-13 11:53:00,
2013-07-13 06:08:00,69.5,61.0,29.68,ESE,116,0.0,4.0,75,0.00,,,0.22,weatherlink.com 1.10,2013-07-13 12:08:00,
2013-07-13 06:23:00,69.9,61.0,29.68,ESE,116,0.0,1.0,74,0.00,,,0.22,weatherlink.com 1.10,2013-07-13 12:23:00,
2013-07-13 06:38:00,70.8,62.0,29.68,ESE,110,0.0,1.0,74,0.00,,,0.22,weatherlink.com 1.10,2013-07-13 12:38:00,
2013-07-13 06:53:00,71.4,62.0,29.68,ESE,110,0.0,0.0,73,0.00,,,0.22,weatherlink.com 1.10,2013-07-13 12:53:00,
2013-07-13 07:08:00,72.5,62.0,29.68,ESE,110,0.0,0.0,70,0.00,,,0.22,weatherlink.com 1.10,2013-07-13 13:08:00,
2013-07-13 07:23:00,73.0,62.0,29.69,ESE,110,0.0,0.0,68,0.00,,,0.22,weatherlink.com 1.10,2013-07-13 13:23:00,
2013-07-13 07:38:00,74.0,61.0,29.69,NNW,335,0.0,1.0,65,0.00,,,0.22,weatherlink.com 1.10,2013-07-13 13:38:00,
2013-07-13 07:53:00,75.4,64.0,29.70,NNW,334,0.0,0.0,67,0.00,,,0.22,weatherlink.com 1.10,2013-07-13 13:53:00,
2013-07-13 08:08:00,75.7,61.0,29.70,NNW,344,0.0,2.0,61,0.00,,,0.22,weatherlink.com 1.10,2013-07-13 14:08:00,
2013-07-13 08:23:00,78.2,63.0,29.70,SW,235,0.0,1.0,59,0.00,,,0.22,weatherlink.com 1.10,2013-07-13 14:23:00,
2013-07-13 08:38:00,80.4,61.0,29.70,WNW,297,1.0,1.0,51,0.00,,,0.22,weatherlink.com 1.10,2013-07-13 14:38:00,
2013-07-13 08:53:00,80.1,60.0,29.70,NNW,347,0.0,3.0,50,0.00,,,0.22,weatherlink.com 1.10,2013-07-13 14:53:00,
2013-07-13 09:08:00,80.9,60.0,29.71,NW,310,0.0,3.0,49,0.00,,,0.22,weatherlink.com 1.10,2013-07-13 15:08:00,
2013-07-13 09:23:00,83.3,60.0,29.71,West,276,0.0,2.0,45,0.00,,,0.22,weatherlink.com 1.10,2013-07-13 15:23:00,
2013-07-13 09:38:00,83.7,60.0,29.70,NNW,342,3.0,3.0,45,0.00,,,0.22,weatherlink.com 1.10,2013-07-13 15:38:00,
2013-07-13 09:53:00,85.0,57.0,29.71,ESE,103,1.0,1.0,38,0.00,,,0.22,weatherlink.com 1.10,2013-07-13 15:53:00,
2013-07-13 10:08:00,85.2,58.0,29.70,SE,137,0.0,2.0,39,0.00,,,0.22,weatherlink.com 1.10,2013-07-13 16:08:00,
2013-07-13 10:23:00,86.9,58.0,29.70,North,354,2.0,3.0,37,0.00,,,0.22,weatherlink.com 1.10,2013-07-13 16:23:00,
2013-07-13 10:38:00,85.5,57.0,29.69,WNW,302,1.0,4.0,38,0.00,,,0.22,weatherlink.com 1.10,2013-07-13 16:38:00,
2013-07-13 10:53:00,87.5,57.0,29.69,ESE,113,4.0,4.0,36,0.00,,,0.22,weatherlink.com 1.10,2013-07-13 16:53:00,
2013-07-13 11:08:00,87.4,57.0,29.69,ESE,113,2.0,5.0,35,0.00,,,0.22,weatherlink.com 1.10,2013-07-13 17:08:00,
2013-07-13 11:23:00,88.8,58.0,29.69,WSW,257,1.0,5.0,35,0.00,,,0.22,weatherlink.com 1.10,2013-07-13 17:23:00,
2013-07-13 11:38:00,88.9,56.0,29.68,SE,142,1.0,2.0,33,0.00,,,0.22,weatherlink.com 1.10,2013-07-13 17:38:00,
2013-07-13 11:53:00,90.1,56.0,29.67,SW,236,1.0,3.0,32,0.00,,,0.22,weatherlink.com 1.10,2013-07-13 17:53:00,
2013-07-13 12:08:00,91.1,56.0,29.66,NNE,19,1.0,7.0,30,0.00,,,0.22,weatherlink.com 1.10,2013-07-13 18:08:00,
2013-07-13 12:23:00,92.4,57.0,29.66,NNW,334,1.0,2.0,30,0.00,,,0.22,weatherlink.com 1.10,2013-07-13 18:23:00,
2013-07-13 12:38:00,91.9,56.0,29.66,SSW,207,4.0,5.0,30,0.00,,,0.22,weatherlink.com 1.10,2013-07-13 18:38:00,
2013-07-13 12:53:00,92.3,56.0,29.65,SW,231,2.0,5.0,29,0.00,,,0.22,weatherlink.com 1.10,2013-07-13 18:53:00,
2013-07-13 13:08:00,91.2,56.0,29.65,WSW,238,5.0,6.0,30,0.00,,,0.22,weatherlink.com 1.10,2013-07-13 19:08:00,
2013-07-13 13:23:00,90.4,56.0,29.64,WSW,238,1.0,4.0,31,0.00,,,0.22,weatherlink.com 1.10,2013-07-13 19:23:00,
2013-07-13 13:38:00,93.7,57.0,29.63,SW,229,1.0,4.0,29,0.00,,,0.22,weatherlink.com 1.10,2013-07-13 19:38:00,
2013-07-13 13:53:00,93.7,55.0,29.63,SW,236,3.0,4.0,27,0.00,,,0.22,weatherlink.com 1.10,2013-07-13 19:53:00,
2013-07-13 14:09:00,94.3,56.0,29.62,SW,236,1.0,6.0,27,0.00,,,0.22,weatherlink.com 1.10,2013-07-13 20:09:00,
2013-07-13 14:24:00,94.6,55.0,29.62,SSE,152,3.0,5.0,26,0.00,,,0.22,weatherlink.com 1.10,2013-07-13 20:24:00,
2013-07-13 14:39:00,94.8,54.0,29.61,East,88,1.0,7.0,25,0.00,,,0.22,weatherlink.com 1.10,2013-07-13 20:39:00,
2013-07-13 14:54:00,97.1,55.0,29.61,SE,136,5.0,6.0,24,0.00,,,0.22,weatherlink.com 1.10,2013-07-13 20:54:00,
2013-07-13 15:09:00,96.8,54.0,29.60,SW,232,4.0,5.0,24,0.00,,,0.22,weatherlink.com 1.10,2013-07-13 21:09:00,
2013-07-13 15:24:00,98.2,53.0,29.59,WSW,240,2.0,7.0,22,0.00,,,0.22,weatherlink.com 1.10,2013-07-13 21:24:00,
2013-07-13 15:39:00,95.3,52.0,29.59,WSW,253,7.0,9.0,23,0.00,,,0.22,weatherlink.com 1.10,2013-07-13 21:39:00,
2013-07-13 15:54:00,96.3,49.0,29.59,WNW,287,2.0,8.0,20,0.00,,,0.22,weatherlink.com 1.10,2013-07-13 21:54:00,
2013-07-13 16:09:00,96.4,46.0,29.58,SW,228,1.0,6.0,18,0.00,,,0.22,weatherlink.com 1.10,2013-07-13 22:09:00,
2013-07-13 16:24:00,96.8,51.0,29.58,SW,219,1.0,7.0,21,0.00,,,0.22,weatherlink.com 1.10,2013-07-13 22:24:00,
2013-07-13 16:39:00,97.9,52.0,29.57,SW,228,2.0,5.0,21,0.00,,,0.22,weatherlink.com 1.10,2013-07-13 22:39:00,
2013-07-13 16:54:00,98.6,48.0,29.57,ESE,103,2.0,5.0,18,0.00,,,0.22,weatherlink.com 1.10,2013-07-13 22:54:00,
2013-07-13 17:09:00,98.4,48.0,29.56,ESE,120,2.0,3.0,18,0.00,,,0.22,weatherlink.com 1.10,2013-07-13 23:09:00,
2013-07-13 17:24:00,98.6,50.0,29.56,SSE,165,1.0,5.0,19,0.00,,,0.22,weatherlink.com 1.10,2013-07-13 23:24:00,
2013-07-13 17:39:00,93.8,51.0,29.56,ESE,113,4.0,8.0,23,0.00,,,0.22,weatherlink.com 1.10,2013-07-13 23:39:00,
2013-07-13 17:54:00,92.2,52.0,29.55,SSE,162,3.0,8.0,25,0.00,,,0.22,weatherlink.com 1.10,2013-07-13 23:54:00,
2013-07-13 18:09:00,91.2,52.0,29.55,ESE,120,2.0,7.0,26,0.00,,,0.22,weatherlink.com 1.10,2013-07-14 00:09:00,
2013-07-13 18:24:00,90.8,51.0,29.55,ESE,109,0.0,7.0,26,0.00,,,0.22,weatherlink.com 1.10,2013-07-14 00:24:00,
2013-07-13 18:39:00,91.5,54.0,29.56,West,270,2.0,5.0,28,0.00,,,0.22,weatherlink.com 1.10,2013-07-14 00:39:00,
2013-07-13 18:54:00,91.4,55.0,29.56,NW,305,1.0,5.0,29,0.00,,,0.22,weatherlink.com 1.10,2013-07-14 00:54:00,
2013-07-13 19:09:00,90.2,54.0,29.56,North,356,4.0,5.0,29,0.00,,,0.22,weatherlink.com 1.10,2013-07-14 01:09:00,
2013-07-13 19:24:00,88.7,52.0,29.57,NW,324,2.0,8.0,28,0.00,,,0.22,weatherlink.com 1.10,2013-07-14 01:24:00,
2013-07-13 19:39:00,88.1,51.0,29.57,NNW,335,3.0,6.0,28,0.00,,,0.22,weatherlink.com 1.10,2013-07-14 01:39:00,
2013-07-13 19:54:00,86.8,54.0,29.59,NW,323,8.0,10.0,33,0.00,,,0.22,weatherlink.com 1.10,2013-07-14 01:54:00,
2013-07-13 20:09:00,83.9,54.0,29.60,NNW,332,2.0,12.0,36,0.00,,,0.22,weatherlink.com 1.10,2013-07-14 02:09:00,
2013-07-13 20:24:00,82.8,54.0,29.61,WNW,288,1.0,6.0,37,0.00,,,0.22,weatherlink.com 1.10,2013-07-14 02:24:00,
2013-07-13 20:39:00,82.3,54.0,29.61,NW,308,1.0,7.0,38,0.00,,,0.22,weatherlink.com 1.10,2013-07-14 02:39:00,
2013-07-13 20:54:00,81.8,55.0,29.61,NW,315,3.0,6.0,40,0.00,,,0.22,weatherlink.com 1.10,2013-07-14 02:54:00,
2013-07-13 21:09:00,81.5,56.0,29.61,WSW,250,2.0,5.0,41,0.00,,,0.22,weatherlink.com 1.10,2013-07-14 03:09:00,
2013-07-13 21:24:00,81.6,54.0,29.62,North,4,3.0,6.0,38,0.00,,,0.22,weatherlink.com 1.10,2013-07-14 03:24:00,
2013-07-13 21:39:00,81.7,54.0,29.62,SW,233,1.0,5.0,38,0.00,,,0.22,weatherlink.com 1.10,2013-07-14 03:39:00,
2013-07-13 21:54:00,81.5,54.0,29.63,North,9,6.0,8.0,39,0.00,,,0.22,weatherlink.com 1.10,2013-07-14 03:54:00,
2013-07-13 22:09:00,81.7,54.0,29.63,South,184,1.0,5.0,38,0.00,,,0.22,weatherlink.com 1.10,2013-07-14 04:09:00,
2013-07-13 22:24:00,82.2,55.0,29.66,SW,221,2.0,9.0,39,0.00,,,0.22,weatherlink.com 1.10,2013-07-14 04:24:00,
2013-07-13 22:39:00,80.8,56.0,29.67,SSE,148,0.0,4.0,42,0.00,,,0.22,weatherlink.com 1.10,2013-07-14 04:39:00,
2013-07-13 22:54:00,77.6,58.0,29.67,SE,142,12.0,17.0,51,0.00,,,0.22,weatherlink.com 1.10,2013-07-14 04:54:00,
2013-07-13 23:09:00,75.9,57.0,29.67,ESE,105,7.0,13.0,53,0.00,,,0.22,weatherlink.com 1.10,2013-07-14 05:09:00,
2013-07-13 23:24:00,75.9,57.0,29.67,ESE,115,4.0,10.0,53,0.00,,,0.22,weatherlink.com 1.10,2013-07-14 05:24:00,
2013-07-13 23:39:00,75.2,56.0,29.67,SE,129,5.0,14.0,52,0.00,,,0.22,weatherlink.com 1.10,2013-07-14 05:39:00,
2013-07-13 23:54:00,75.0,56.0,29.67,NE,53,6.0,8.0,51,0.00,,,0.22,weatherlink.com 1.10,2013-07-14 05:54:00,